createdAt,value
2023-04-05T00:01:35.766Z,7.40
2023-04-05T00:04:08.004Z,7.07
2023-04-05T00:06:37.840Z,5.95
2023-04-05T00:09:06.760Z,5.95
2023-04-05T00:11:35.727Z,6.28
2023-04-05T00:14:05.155Z,5.80
2023-04-05T00:16:36.315Z,5.63
2023-04-05T00:19:06.725Z,6.18
2023-04-05T00:21:39.230Z,6.45
2023-04-05T00:24:15.405Z,6.55
2023-04-05T00:26:45.235Z,6.43
2023-04-05T00:29:14.189Z,6.45
2023-04-05T00:31:43.052Z,6.22
2023-04-05T00:34:13.262Z,6.60
2023-04-05T00:36:42.166Z,7.30
2023-04-05T00:39:10.973Z,7.32
2023-04-05T00:41:40.346Z,6.90
2023-04-05T00:44:09.564Z,6.55
2023-04-05T00:46:38.503Z,6.32
2023-04-05T00:49:07.375Z,6.07
2023-04-05T00:51:39.141Z,5.60
2023-04-05T00:54:08.762Z,5.93
2023-04-05T00:56:37.962Z,6.68
2023-04-05T00:59:07.165Z,5.97
2023-04-05T01:01:38.307Z,5.70
2023-04-05T01:04:08.140Z,5.72
2023-04-05T01:06:54.274Z,6.80
2023-04-05T01:09:34.784Z,5.97
2023-04-05T01:12:07.824Z,4.95
2023-04-05T01:14:46.124Z,5.35
2023-04-05T01:17:16.581Z,6.03
2023-04-05T01:19:48.122Z,5.63
2023-04-05T01:22:46.242Z,5.35
2023-04-05T01:25:44.984Z,5.50
2023-04-05T01:29:17.890Z,4.90
2023-04-05T01:31:53.295Z,5.25
2023-04-05T01:34:30.761Z,4.60
2023-04-05T01:37:04.158Z,4.60
2023-04-05T01:39:36.458Z,4.63
2023-04-05T01:42:07.193Z,4.63
2023-04-05T01:44:36.144Z,4.78
2023-04-05T01:47:06.593Z,4.88
2023-04-05T01:49:35.492Z,6.07
2023-04-05T01:52:04.325Z,4.60
2023-04-05T01:54:33.353Z,5.20
2023-04-05T01:57:02.166Z,4.72
2023-04-05T01:59:31.202Z,5.10
2023-04-05T02:02:01.634Z,4.57
2023-04-05T02:04:31.976Z,4.63
2023-04-05T02:07:01.051Z,4.40
2023-04-05T02:09:35.833Z,4.57
2023-04-05T02:12:08.924Z,4.35
2023-04-05T02:14:41.808Z,5.35
2023-04-05T02:17:15.422Z,4.80
2023-04-05T02:19:49.935Z,4.32
2023-04-05T02:22:22.689Z,4.30
2023-04-05T02:24:56.014Z,4.63
2023-04-05T02:27:28.812Z,4.20
2023-04-05T02:29:59.550Z,4.78
2023-04-05T02:32:28.642Z,4.78
2023-04-05T02:35:00.791Z,4.70
2023-04-05T02:37:29.560Z,5.60
2023-04-05T02:39:58.482Z,4.40
2023-04-05T02:42:27.404Z,4.68
2023-04-05T02:44:56.766Z,4.70
2023-04-05T02:47:25.743Z,4.30
2023-04-05T02:50:01.106Z,4.40
2023-04-05T02:52:37.733Z,4.35
2023-04-05T02:55:07.528Z,3.97
2023-04-05T02:57:37.176Z,4.30
2023-04-05T03:00:18.778Z,4.07
2023-04-05T03:02:47.851Z,4.65
2023-04-05T03:05:18.920Z,5.10
2023-04-05T03:07:52.234Z,3.85
2023-04-05T03:10:28.950Z,4.00
2023-04-05T03:15:34.083Z,4.57
2023-04-05T03:18:09.438Z,4.10
2023-04-05T03:20:40.492Z,4.45
2023-04-05T03:23:17.428Z,4.35
2023-04-05T03:25:47.763Z,4.63
2023-04-05T03:28:18.375Z,4.18
2023-04-05T03:30:51.631Z,3.85
2023-04-05T03:33:22.548Z,4.00
2023-04-05T03:35:54.504Z,3.92
2023-04-05T03:38:24.168Z,4.57
2023-04-05T03:41:08.301Z,4.60
2023-04-05T03:43:38.179Z,3.53
2023-04-05T03:46:08.127Z,4.57
2023-04-05T03:48:37.204Z,4.40
2023-04-05T03:51:08.111Z,4.30
2023-04-05T03:53:36.963Z,4.18
2023-04-05T03:56:06.479Z,4.15
2023-04-05T03:58:46.844Z,4.75
2023-04-05T04:01:16.982Z,4.15
2023-04-05T04:03:45.944Z,4.72
2023-04-05T04:06:19.256Z,4.95
2023-04-05T04:08:48.877Z,4.15
2023-04-05T04:11:17.778Z,4.05
2023-04-05T04:13:46.699Z,4.10
2023-04-05T04:16:26.144Z,3.90
2023-04-05T04:18:57.131Z,4.35
2023-04-05T04:21:56.880Z,4.20
2023-04-05T04:25:03.736Z,3.55
2023-04-05T04:28:01.602Z,3.75
2023-04-05T04:30:48.384Z,4.10
2023-04-05T04:33:34.609Z,4.13
2023-04-05T04:36:36.391Z,4.00
2023-04-05T04:39:26.760Z,4.38
2023-04-05T04:42:23.915Z,4.10
2023-04-05T04:44:58.268Z,4.50
2023-04-05T04:47:49.368Z,3.80
2023-04-05T04:50:41.691Z,4.22
2023-04-05T04:53:11.233Z,3.83
2023-04-05T04:55:42.493Z,5.13
2023-04-05T04:58:13.053Z,5.68
2023-04-05T05:00:45.318Z,4.57
2023-04-05T05:03:14.983Z,4.43
2023-04-05T05:05:44.546Z,4.90
2023-04-05T05:08:13.546Z,4.53
2023-04-05T05:10:46.112Z,4.78
2023-04-05T05:13:15.505Z,4.55
2023-04-05T05:15:44.404Z,4.38
2023-04-05T05:18:13.458Z,4.75
2023-04-05T05:20:43.162Z,4.40
2023-04-05T05:23:12.147Z,4.47
2023-04-05T05:25:42.701Z,4.53
2023-04-05T05:28:13.067Z,4.75
2023-04-05T05:30:42.018Z,5.13
2023-04-05T05:33:11.212Z,5.50
2023-04-05T05:35:43.142Z,5.60
2023-04-05T05:38:13.909Z,5.57
2023-04-05T05:40:43.347Z,5.30
2023-04-05T05:43:13.981Z,5.47
2023-04-05T05:45:42.969Z,4.90
2023-04-05T05:48:12.128Z,6.50
2023-04-05T05:50:42.049Z,5.10
2023-04-05T05:53:11.170Z,5.22
2023-04-05T05:55:41.771Z,6.38
2023-04-05T05:58:10.674Z,6.90
2023-04-05T06:00:41.137Z,5.68
2023-04-05T06:03:10.256Z,7.78
2023-04-05T06:05:39.260Z,5.80
2023-04-05T06:08:09.153Z,6.40
2023-04-05T06:10:39.306Z,7.03
2023-04-05T06:13:08.553Z,6.75
2023-04-05T06:15:37.815Z,5.47
2023-04-05T06:18:08.292Z,6.18
2023-04-05T06:20:40.743Z,6.38
2023-04-05T06:23:09.827Z,7.85
2023-04-05T06:25:38.834Z,7.53
2023-04-05T06:28:08.660Z,7.45
2023-04-05T06:30:37.633Z,6.70
2023-04-05T06:33:08.075Z,7.22
2023-04-05T06:35:36.983Z,8.95
2023-04-05T06:38:05.808Z,7.85
2023-04-05T06:40:34.883Z,8.35
2023-04-05T06:43:03.795Z,6.85
2023-04-05T06:45:34.539Z,7.18
2023-04-05T06:48:03.521Z,7.57
2023-04-05T06:50:34.097Z,7.95
2023-04-05T06:53:04.616Z,7.40
2023-04-05T06:55:33.877Z,7.22
2023-04-05T06:58:02.692Z,7.28
2023-04-05T07:00:31.691Z,6.95
2023-04-05T07:03:00.706Z,7.35
2023-04-05T07:05:29.528Z,7.53
2023-04-05T07:07:59.891Z,7.68
2023-04-05T07:10:28.971Z,7.57
2023-04-05T07:12:58.011Z,7.50
2023-04-05T07:15:26.811Z,7.50
2023-04-05T07:17:55.810Z,6.82
2023-04-05T07:20:24.611Z,7.35
2023-04-05T07:22:53.724Z,6.95
2023-04-05T07:25:23.911Z,7.07
2023-04-05T07:27:52.786Z,6.95
2023-04-05T07:30:21.891Z,7.95
2023-04-05T07:32:51.093Z,6.55
2023-04-05T07:35:20.077Z,6.07
2023-04-05T07:37:48.923Z,7.40
2023-04-05T07:40:17.991Z,7.00
2023-04-05T07:42:48.459Z,6.47
2023-04-05T07:45:17.731Z,6.32
2023-04-05T07:47:46.633Z,6.47
2023-04-05T07:50:16.050Z,6.72
2023-04-05T07:52:44.998Z,6.38
2023-04-05T07:55:14.038Z,6.25
2023-04-05T07:57:43.090Z,7.18
2023-04-05T08:00:15.592Z,7.47
2023-04-05T08:02:44.716Z,7.20
2023-04-05T08:05:13.641Z,7.05
2023-04-05T08:07:42.762Z,6.07
2023-04-05T08:10:12.400Z,7.82
2023-04-05T08:12:41.435Z,6.30
2023-04-05T08:15:12.490Z,6.10
2023-04-05T08:17:41.504Z,5.47
2023-04-05T08:20:11.216Z,4.20
2023-04-05T08:22:40.002Z,5.38
2023-04-05T08:25:10.406Z,4.88
2023-04-05T08:27:39.491Z,4.35
2023-04-05T08:30:09.753Z,3.83
2023-04-05T08:32:41.094Z,4.32
2023-04-05T08:35:10.752Z,5.65
2023-04-05T08:37:39.775Z,4.75
2023-04-05T08:40:09.917Z,5.10
2023-04-05T08:42:43.789Z,4.68
2023-04-05T08:45:14.819Z,4.72
2023-04-05T08:47:45.266Z,4.85
2023-04-05T08:50:14.518Z,5.53
2023-04-05T08:52:49.870Z,5.60
2023-04-05T08:55:18.946Z,4.95
2023-04-05T08:57:55.079Z,5.25
2023-04-05T09:00:24.092Z,5.10
2023-04-05T09:02:58.220Z,5.05
2023-04-05T09:05:28.087Z,5.07
2023-04-05T09:07:59.460Z,4.47
2023-04-05T09:10:29.086Z,4.72
2023-04-05T09:12:58.688Z,5.35
2023-04-05T09:15:28.106Z,4.90
2023-04-05T09:17:58.544Z,5.47
2023-04-05T09:20:27.520Z,5.70
2023-04-05T09:22:58.165Z,5.47
2023-04-05T09:25:39.472Z,5.00
2023-04-05T09:28:08.623Z,5.03
2023-04-05T09:30:38.335Z,5.50
2023-04-05T09:33:11.783Z,5.78
2023-04-05T09:35:40.534Z,5.57
2023-04-05T09:38:09.493Z,5.40
2023-04-05T09:40:44.313Z,6.20
2023-04-05T09:43:13.965Z,5.68
2023-04-05T09:45:46.069Z,5.70
2023-04-05T09:48:16.337Z,5.93
2023-04-05T09:50:45.527Z,5.47
2023-04-05T09:53:16.793Z,6.90
2023-04-05T09:55:48.596Z,6.35
2023-04-05T09:58:21.959Z,5.65
2023-04-05T10:01:00.088Z,5.78
2023-04-05T10:06:16.841Z,5.45
2023-04-05T10:08:48.138Z,5.20
2023-04-05T10:11:19.826Z,5.75
2023-04-05T10:13:51.806Z,5.50
2023-04-05T10:16:24.356Z,5.68
2023-04-05T10:18:55.086Z,5.15
2023-04-05T10:21:29.800Z,6.68
2023-04-05T10:24:09.843Z,5.55
2023-04-05T10:26:44.790Z,6.43
2023-04-05T10:29:21.166Z,6.65
2023-04-05T10:31:55.117Z,6.05
2023-04-05T10:34:36.531Z,6.18
2023-04-05T10:37:05.987Z,5.72
2023-04-05T10:39:41.439Z,6.22
2023-04-05T10:42:20.832Z,5.88
2023-04-05T10:44:53.681Z,6.53
2023-04-05T10:47:28.105Z,5.85
2023-04-05T10:50:01.427Z,5.88
2023-04-05T10:52:30.818Z,5.53
2023-04-05T10:55:00.265Z,5.70
2023-04-05T10:57:29.628Z,6.82
2023-04-05T11:00:00.718Z,6.00
2023-04-05T11:02:31.188Z,6.03
2023-04-05T11:05:05.527Z,6.07
2023-04-05T11:07:45.223Z,5.88
2023-04-05T11:10:18.803Z,6.65
2023-04-05T11:13:14.436Z,5.82
2023-04-05T11:15:43.334Z,6.93
2023-04-05T11:18:14.206Z,5.93
2023-04-05T11:20:51.741Z,5.60
2023-04-05T11:23:22.403Z,6.60
2023-04-05T11:25:57.656Z,5.85
2023-04-05T11:28:32.213Z,5.85
2023-04-05T11:31:14.315Z,5.65
2023-04-05T11:33:59.848Z,6.15
2023-04-05T11:36:38.088Z,6.20
2023-04-05T11:39:26.546Z,6.30
2023-04-05T11:41:58.228Z,6.05
2023-04-05T11:44:27.021Z,6.30
2023-04-05T11:46:56.589Z,6.55
2023-04-05T11:49:25.989Z,7.07
2023-04-05T11:51:56.589Z,6.80
2023-04-05T11:54:32.652Z,6.82
2023-04-05T11:57:02.180Z,6.95
2023-04-05T11:59:33.023Z,6.40
2023-04-05T12:02:04.104Z,6.95
2023-04-05T12:04:33.214Z,5.80
2023-04-05T12:07:15.502Z,7.03
2023-04-05T12:10:02.503Z,6.57
2023-04-05T12:12:39.000Z,6.22
2023-04-05T12:15:11.096Z,6.90
2023-04-05T12:17:50.865Z,5.97
2023-04-05T12:20:21.553Z,6.60
2023-04-05T12:22:54.224Z,5.85
2023-04-05T12:25:24.073Z,6.75
2023-04-05T12:27:53.308Z,6.20
2023-04-05T12:30:24.202Z,6.18
2023-04-05T12:32:54.747Z,6.22
2023-04-05T12:35:27.183Z,5.93
2023-04-05T12:37:59.540Z,6.30
2023-04-05T12:43:04.310Z,5.85
2023-04-05T12:45:40.594Z,5.95
2023-04-05T12:48:11.750Z,7.10
2023-04-05T12:50:44.885Z,6.45
2023-04-05T12:53:20.613Z,6.50
2023-04-05T12:55:53.969Z,6.65
2023-04-05T12:58:24.585Z,6.22
2023-04-05T13:00:53.711Z,7.57
2023-04-05T13:03:23.851Z,6.72
2023-04-05T13:05:53.089Z,6.30
2023-04-05T13:08:23.570Z,6.30
2023-04-05T13:10:52.757Z,5.95
2023-04-05T13:13:21.886Z,6.63
2023-04-05T13:15:52.192Z,6.50
2023-04-05T13:18:21.733Z,6.38
2023-04-05T13:20:50.657Z,6.57
2023-04-05T13:23:19.657Z,6.05
2023-04-05T13:25:49.882Z,6.70
2023-04-05T13:28:18.752Z,6.40
2023-04-05T13:30:48.656Z,6.50
2023-04-05T13:33:19.656Z,9.15
2023-04-05T13:35:49.000Z,7.03
2023-04-05T13:38:18.063Z,6.75
2023-04-05T13:40:47.028Z,7.20
2023-04-05T13:43:46.762Z,7.57
2023-04-05T13:46:15.588Z,8.57
2023-04-05T13:48:44.546Z,9.45
2023-04-05T13:51:13.460Z,7.28
2023-04-05T13:53:42.648Z,8.40
2023-04-05T13:56:11.468Z,6.97
2023-04-05T13:58:41.962Z,7.32
2023-04-05T14:01:11.062Z,7.82
2023-04-05T14:03:40.115Z,7.68
2023-04-05T14:06:09.319Z,7.47
2023-04-05T14:08:38.162Z,7.25
2023-04-05T14:11:12.628Z,8.18
2023-04-05T14:13:46.600Z,7.55
2023-04-05T14:16:19.728Z,7.25
2023-04-05T14:18:52.554Z,7.57
2023-04-05T14:21:26.285Z,7.35
2023-04-05T14:23:59.237Z,7.28
2023-04-05T14:26:32.037Z,7.97
2023-04-05T14:29:06.998Z,7.85
2023-04-05T14:31:39.868Z,7.15
2023-04-05T14:34:10.516Z,6.45
2023-04-05T14:36:39.530Z,7.45
2023-04-05T14:39:08.352Z,7.35
2023-04-05T14:41:37.735Z,7.13
2023-04-05T14:44:08.178Z,6.78
2023-04-05T14:46:37.992Z,6.70
2023-04-05T14:49:09.790Z,7.15
2023-04-05T14:51:42.673Z,6.65
2023-04-05T14:54:15.522Z,7.70
2023-04-05T14:56:53.378Z,6.68
2023-04-05T14:59:28.970Z,6.53
2023-04-05T15:01:58.652Z,6.55
2023-04-05T15:04:29.851Z,7.55
2023-04-05T15:06:59.498Z,7.05
2023-04-05T15:09:28.864Z,6.80
2023-04-05T15:11:58.388Z,6.85
2023-04-05T15:14:37.814Z,7.18
2023-04-05T15:17:07.695Z,7.32
2023-04-05T15:19:40.754Z,8.07
2023-04-05T15:22:11.030Z,7.38
2023-04-05T15:24:41.725Z,7.22
2023-04-05T15:27:11.858Z,7.72
2023-04-05T15:29:42.450Z,6.97
2023-04-05T15:32:11.627Z,8.07
2023-04-05T15:34:41.088Z,6.97
2023-04-05T15:37:10.278Z,8.23
2023-04-05T15:39:39.196Z,7.47
2023-04-05T15:42:08.154Z,7.95
2023-04-05T15:44:37.104Z,8.57
2023-04-05T15:47:07.442Z,7.32
2023-04-05T15:49:36.324Z,8.27
2023-04-05T15:52:08.625Z,8.27
2023-04-05T15:57:06.597Z,8.35
2023-04-05T15:59:35.566Z,9.68
2023-04-05T16:02:06.349Z,8.88
2023-04-05T16:04:35.290Z,7.97
2023-04-05T16:07:04.447Z,8.27
2023-04-05T16:09:33.551Z,7.68
2023-04-05T16:12:03.562Z,7.35
2023-04-05T16:14:32.490Z,7.10
2023-04-05T16:17:04.105Z,7.63
2023-04-05T16:19:34.638Z,8.70
2023-04-05T16:22:03.858Z,7.30
2023-04-05T16:24:33.296Z,9.00
2023-04-05T16:27:02.313Z,8.32
2023-04-05T16:29:31.713Z,8.80
2023-04-05T16:32:01.189Z,7.80
2023-04-05T16:34:30.434Z,8.18
2023-04-05T16:37:00.866Z,7.43
2023-04-05T16:39:30.102Z,8.32
2023-04-05T16:41:59.113Z,8.85
2023-04-05T16:44:29.268Z,8.90
2023-04-05T16:46:59.304Z,7.35
2023-04-05T16:49:28.279Z,7.85
2023-04-05T16:51:57.326Z,9.23
2023-04-05T16:54:27.663Z,7.93
2023-04-05T16:56:56.647Z,7.50
2023-04-05T16:59:25.654Z,7.70
2023-04-05T17:01:54.764Z,9.88
2023-04-05T17:04:23.858Z,9.05
2023-04-05T17:06:52.959Z,7.90
2023-04-05T17:09:23.189Z,8.38
2023-04-05T17:11:53.700Z,8.32
2023-04-05T17:14:22.770Z,7.20
2023-04-05T17:16:51.705Z,8.57
2023-04-05T17:19:20.832Z,8.00
2023-04-05T17:21:49.831Z,7.43
2023-04-05T17:24:18.965Z,8.63
2023-04-05T17:26:48.844Z,8.57
2023-04-05T17:29:19.123Z,7.78
2023-04-05T17:31:47.999Z,7.63
2023-04-05T17:34:17.022Z,9.30
2023-04-05T17:36:46.783Z,8.68
2023-04-05T17:39:17.773Z,9.15
2023-04-05T17:41:47.017Z,8.38
2023-04-05T17:44:16.578Z,8.48
2023-04-05T17:46:57.346Z,8.13
2023-04-05T17:49:36.434Z,7.78
2023-04-05T17:52:07.797Z,9.15
2023-04-05T17:54:37.666Z,8.65
2023-04-05T17:57:06.948Z,8.25
2023-04-05T17:59:36.730Z,10.23
2023-04-05T18:02:07.668Z,8.10
2023-04-05T18:04:36.920Z,7.53
2023-04-05T18:07:06.375Z,8.48
2023-04-05T18:09:38.576Z,8.70
2023-04-05T18:12:08.306Z,9.70
2023-04-05T18:14:38.194Z,9.75
2023-04-05T18:17:08.749Z,11.25
2023-04-05T18:19:38.066Z,11.20
2023-04-05T18:22:07.682Z,11.77
2023-04-05T18:24:36.810Z,10.20
2023-04-05T18:27:05.806Z,11.07
2023-04-05T18:29:38.007Z,8.90
2023-04-05T18:32:09.738Z,9.32
2023-04-05T18:34:38.619Z,8.85
2023-04-05T18:37:08.044Z,8.80
2023-04-05T18:39:36.988Z,8.63
2023-04-05T18:42:06.239Z,8.63
2023-04-05T18:44:35.580Z,8.48
2023-04-05T18:47:04.891Z,8.80
2023-04-05T18:49:37.117Z,8.15
2023-04-05T18:52:06.139Z,8.65
2023-04-05T18:54:36.450Z,7.93
2023-04-05T18:57:07.862Z,8.55
2023-04-05T18:59:37.055Z,8.80
2023-04-05T19:02:06.084Z,8.50
2023-04-05T19:04:36.652Z,8.75
2023-04-05T19:07:05.814Z,9.63
2023-04-05T19:09:34.721Z,8.82
2023-04-05T19:12:03.620Z,9.02
2023-04-05T19:14:34.965Z,8.75
2023-04-05T19:17:03.961Z,9.32
2023-04-05T19:19:36.293Z,8.63
2023-04-05T19:22:05.757Z,10.00
2023-04-05T19:24:34.722Z,9.05
2023-04-05T19:27:03.697Z,8.77
2023-04-05T19:29:36.254Z,8.30
2023-04-05T19:32:05.343Z,8.23
2023-04-05T19:34:34.447Z,8.85
2023-04-05T19:37:05.497Z,8.50
2023-04-05T19:39:37.494Z,8.25
2023-04-05T19:42:07.225Z,8.77
2023-04-05T19:44:39.464Z,8.43
2023-04-05T19:47:11.096Z,8.30
2023-04-05T19:49:43.428Z,9.02
2023-04-05T19:52:35.281Z,8.55
2023-04-05T19:55:25.160Z,9.18
2023-04-05T19:57:57.206Z,7.80
2023-04-05T20:00:35.876Z,8.68
2023-04-05T20:03:28.696Z,8.82
2023-04-05T20:06:09.348Z,9.02
2023-04-05T20:08:41.224Z,8.50
2023-04-05T20:11:12.780Z,9.30
2023-04-05T20:13:46.178Z,11.10
2023-04-05T20:16:16.856Z,8.98
2023-04-05T20:18:47.736Z,9.45
2023-04-05T20:21:20.602Z,9.73
2023-04-05T20:23:51.207Z,10.07
2023-04-05T20:26:26.489Z,9.95
2023-04-05T20:28:56.748Z,9.90
2023-04-05T20:31:29.287Z,9.02
2023-04-05T20:33:59.871Z,8.63
2023-04-05T20:36:33.818Z,10.00
2023-04-05T20:39:08.119Z,8.85
2023-04-05T20:41:40.171Z,9.38
2023-04-05T20:44:09.169Z,8.35
2023-04-05T20:46:38.502Z,8.77
2023-04-05T20:49:08.023Z,9.77
2023-04-05T20:51:37.724Z,8.75
2023-04-05T20:54:08.857Z,8.75
2023-04-05T20:56:38.583Z,9.60
2023-04-05T20:59:07.866Z,9.50
2023-04-05T21:01:38.325Z,9.07
2023-04-05T21:04:07.718Z,9.27
2023-04-05T21:06:37.581Z,9.52
2023-04-05T21:09:08.649Z,9.10
2023-04-05T21:11:38.104Z,8.32
2023-04-05T21:14:07.019Z,8.35
2023-04-05T21:16:36.050Z,7.88
2023-04-05T21:19:05.200Z,8.35
2023-04-05T21:21:37.113Z,7.93
2023-04-05T21:24:06.642Z,8.55
2023-04-05T21:26:37.081Z,8.63
2023-04-05T21:29:08.856Z,7.53
2023-04-05T21:31:38.083Z,7.85
2023-04-05T21:34:06.954Z,8.02
2023-04-05T21:36:36.428Z,7.97
2023-04-05T21:39:05.763Z,7.88
2023-04-05T21:41:36.858Z,9.07
2023-04-05T21:44:06.313Z,8.35
2023-04-05T21:46:35.434Z,8.57
2023-04-05T21:49:04.937Z,9.48
2023-04-05T21:51:34.232Z,8.32
2023-04-05T21:54:05.082Z,8.80
2023-04-05T21:56:36.865Z,9.27
2023-04-05T21:59:05.797Z,8.55
2023-04-05T22:01:34.936Z,8.77
2023-04-05T22:04:03.853Z,8.18
2023-04-05T22:06:33.691Z,9.75
2023-04-05T22:09:02.723Z,8.80
2023-04-05T22:11:33.321Z,9.00
2023-04-05T22:14:04.767Z,8.65
2023-04-05T22:16:33.739Z,8.02
2023-04-05T22:19:02.638Z,8.70
2023-04-05T22:21:31.820Z,8.43
2023-04-05T22:24:00.823Z,8.90
2023-04-05T22:26:29.913Z,8.18
2023-04-05T22:28:58.793Z,8.57
2023-04-05T22:31:29.145Z,7.95
2023-04-05T22:33:58.156Z,8.55
2023-04-05T22:36:27.511Z,8.30
2023-04-05T22:38:56.550Z,8.23
2023-04-05T22:41:25.683Z,9.38
2023-04-05T22:43:54.812Z,7.63
2023-04-05T22:46:23.754Z,7.95
2023-04-05T22:48:55.206Z,8.32
2023-04-05T22:51:24.246Z,8.38
2023-04-05T22:53:53.109Z,7.88
2023-04-05T22:56:22.947Z,7.82
2023-04-05T22:58:52.508Z,7.75
2023-04-05T23:01:21.823Z,8.30
2023-04-05T23:03:50.769Z,7.63
2023-04-05T23:06:23.268Z,7.72
2023-04-05T23:08:52.231Z,7.47
2023-04-05T23:11:21.762Z,8.48
2023-04-05T23:13:51.687Z,8.90
2023-04-05T23:16:20.681Z,8.15
2023-04-05T23:18:50.215Z,7.82
2023-04-05T23:21:20.710Z,8.35
2023-04-05T23:23:49.680Z,8.38
2023-04-05T23:26:18.557Z,7.32
2023-04-05T23:28:47.388Z,7.15
2023-04-05T23:31:16.623Z,8.50
2023-04-05T23:33:45.523Z,7.47
2023-04-05T23:36:14.535Z,7.80
2023-04-05T23:38:44.899Z,8.32
2023-04-05T23:41:14.268Z,7.63
2023-04-05T23:43:43.298Z,7.07
2023-04-05T23:46:13.283Z,8.00
2023-04-05T23:48:42.373Z,7.95
2023-04-05T23:51:13.631Z,6.70
2023-04-05T23:53:44.301Z,7.68
2023-04-05T23:56:13.305Z,7.20
2023-04-05T23:58:42.448Z,7.85
